createdAt,value
2023-05-18T00:02:06.974Z,19.98
2023-05-18T00:04:38.801Z,19.95
2023-05-18T00:07:09.762Z,19.95
2023-05-18T00:09:41.361Z,19.94
2023-05-18T00:12:12.776Z,19.94
2023-05-18T00:14:43.496Z,19.94
2023-05-18T00:17:14.976Z,19.94
2023-05-18T00:19:46.895Z,19.93
2023-05-18T00:22:18.768Z,19.93
2023-05-18T00:24:50.048Z,19.93
2023-05-18T00:27:20.848Z,19.94
2023-05-18T00:29:51.552Z,19.93
2023-05-18T00:32:22.357Z,19.92
2023-05-18T00:34:53.060Z,19.91
2023-05-18T00:37:23.993Z,19.90
2023-05-18T00:39:54.761Z,19.90
2023-05-18T00:42:25.477Z,19.89
2023-05-18T00:44:56.828Z,19.88
2023-05-18T00:47:27.668Z,19.88
2023-05-18T00:49:58.431Z,19.87
2023-05-18T00:52:32.877Z,19.86
2023-05-18T00:55:04.617Z,19.84
2023-05-18T00:57:36.796Z,19.83
2023-05-18T01:00:13.974Z,19.82
2023-05-18T01:02:45.543Z,19.81
2023-05-18T01:05:18.237Z,19.81
2023-05-18T01:07:50.463Z,19.81
2023-05-18T01:10:22.511Z,19.81
2023-05-18T01:12:58.480Z,19.81
2023-05-18T01:15:35.288Z,19.80
2023-05-18T01:18:15.367Z,19.80
2023-05-18T01:20:50.903Z,19.78
2023-05-18T01:23:55.794Z,19.77
2023-05-18T01:26:31.678Z,19.77
2023-05-18T01:29:06.103Z,19.76
2023-05-18T01:31:36.940Z,19.76
2023-05-18T01:34:07.619Z,19.75
2023-05-18T01:36:38.324Z,19.76
2023-05-18T01:39:10.258Z,19.74
2023-05-18T01:41:47.541Z,19.74
2023-05-18T01:44:24.564Z,19.73
2023-05-18T01:47:01.961Z,19.72
2023-05-18T01:49:37.242Z,19.71
2023-05-18T01:52:12.617Z,19.70
2023-05-18T01:54:47.539Z,19.71
2023-05-18T01:57:20.050Z,19.71
2023-05-18T01:59:51.262Z,19.71
2023-05-18T02:02:22.700Z,19.71
2023-05-18T02:04:53.595Z,19.70
2023-05-18T02:07:24.843Z,19.69
2023-05-18T02:09:56.059Z,19.70
2023-05-18T02:12:26.900Z,19.69
2023-05-18T02:14:58.501Z,19.68
2023-05-18T02:17:29.569Z,19.68
2023-05-18T02:20:00.353Z,19.67
2023-05-18T02:22:31.280Z,19.67
2023-05-18T02:25:02.214Z,19.66
2023-05-18T02:27:33.642Z,19.65
2023-05-18T02:30:05.264Z,19.64
2023-05-18T02:32:38.457Z,19.63
2023-05-18T02:35:10.887Z,19.62
2023-05-18T02:37:43.257Z,19.61
2023-05-18T02:40:16.135Z,19.60
2023-05-18T02:42:47.006Z,19.60
2023-05-18T02:45:17.725Z,19.59
2023-05-18T02:47:48.438Z,19.58
2023-05-18T02:50:19.405Z,19.56
2023-05-18T02:52:51.473Z,19.56
2023-05-18T02:55:22.243Z,19.55
2023-05-18T02:57:57.200Z,19.56
2023-05-18T03:00:29.641Z,19.55
2023-05-18T03:03:00.629Z,19.56
2023-05-18T03:05:31.563Z,19.57
2023-05-18T03:08:02.554Z,19.58
2023-05-18T03:10:33.270Z,19.59
2023-05-18T03:13:03.963Z,19.59
2023-05-18T03:15:35.082Z,19.59
2023-05-18T03:18:05.980Z,19.59
2023-05-18T03:20:38.012Z,19.58
2023-05-18T03:23:09.084Z,19.57
2023-05-18T03:25:40.136Z,19.57
2023-05-18T03:28:11.101Z,19.57
2023-05-18T03:30:41.851Z,19.57
2023-05-18T03:33:13.233Z,19.57
2023-05-18T03:35:46.422Z,19.57
2023-05-18T03:38:18.879Z,19.57
2023-05-18T03:40:50.043Z,19.56
2023-05-18T03:43:20.872Z,19.56
2023-05-18T03:45:51.802Z,19.56
2023-05-18T03:48:23.795Z,19.57
2023-05-18T03:50:54.600Z,19.57
2023-05-18T03:53:26.452Z,19.57
2023-05-18T03:55:57.687Z,19.57
2023-05-18T03:58:29.426Z,19.57
2023-05-18T04:01:00.579Z,19.58
2023-05-18T04:03:31.658Z,19.57
2023-05-18T04:06:02.482Z,19.57
2023-05-18T04:08:34.557Z,19.57
2023-05-18T04:11:06.967Z,19.57
2023-05-18T04:13:39.388Z,19.57
2023-05-18T04:16:13.590Z,19.55
2023-05-18T04:18:45.067Z,19.54
2023-05-18T04:21:16.168Z,19.55
2023-05-18T04:23:47.622Z,19.56
2023-05-18T04:26:21.252Z,19.57
2023-05-18T04:28:52.067Z,19.58
2023-05-18T04:31:22.884Z,19.58
2023-05-18T04:33:54.071Z,19.59
2023-05-18T04:36:25.831Z,19.58
2023-05-18T04:38:58.933Z,19.58
2023-05-18T04:41:30.639Z,19.58
2023-05-18T04:44:02.114Z,19.57
2023-05-18T04:46:34.624Z,19.57
2023-05-18T04:49:05.360Z,19.57
2023-05-18T04:51:36.982Z,19.58
2023-05-18T04:54:09.224Z,19.58
2023-05-18T04:56:40.126Z,19.57
2023-05-18T04:59:11.178Z,19.57
2023-05-18T05:01:42.563Z,19.55
2023-05-18T05:04:13.663Z,19.55
2023-05-18T05:06:44.602Z,19.54
2023-05-18T05:09:15.502Z,19.53
2023-05-18T05:11:46.658Z,19.53
2023-05-18T05:14:18.244Z,19.52
2023-05-18T05:16:48.965Z,19.51
2023-05-18T05:19:19.860Z,19.51
2023-05-18T05:21:50.916Z,19.50
2023-05-18T05:24:21.774Z,19.49
2023-05-18T05:26:52.630Z,19.48
2023-05-18T05:29:23.418Z,19.47
2023-05-18T05:31:54.581Z,19.46
2023-05-18T05:34:25.644Z,19.45
2023-05-18T05:36:58.872Z,19.43
2023-05-18T05:39:29.717Z,19.43
2023-05-18T05:42:00.558Z,19.42
2023-05-18T05:44:31.539Z,19.41
2023-05-18T05:47:02.452Z,19.41
2023-05-18T05:49:33.393Z,19.40
2023-05-18T05:52:04.790Z,19.39
2023-05-18T05:54:35.801Z,19.40
2023-05-18T05:57:07.338Z,19.39
2023-05-18T05:59:38.338Z,19.40
2023-05-18T06:02:09.629Z,19.40
2023-05-18T06:04:40.726Z,19.41
2023-05-18T06:07:11.497Z,19.41
2023-05-18T06:09:42.362Z,19.41
2023-05-18T06:12:13.562Z,19.41
2023-05-18T06:14:44.513Z,19.40
2023-05-18T06:17:15.605Z,19.39
2023-05-18T06:19:46.580Z,19.39
2023-05-18T06:22:17.463Z,19.38
2023-05-18T06:24:48.569Z,19.38
2023-05-18T06:27:19.474Z,19.36
2023-05-18T06:29:50.355Z,19.36
2023-05-18T06:32:21.394Z,19.35
2023-05-18T06:34:52.931Z,19.35
2023-05-18T06:37:23.687Z,19.34
2023-05-18T06:39:54.668Z,19.33
2023-05-18T06:42:25.683Z,19.33
2023-05-18T06:44:56.486Z,19.31
2023-05-18T06:47:27.634Z,19.30
2023-05-18T06:49:58.502Z,19.29
2023-05-18T06:52:29.569Z,19.29
2023-05-18T06:55:01.501Z,19.28
2023-05-18T06:57:32.724Z,19.27
2023-05-18T07:00:07.178Z,19.26
2023-05-18T07:02:38.013Z,19.26
2023-05-18T07:05:10.179Z,19.26
2023-05-18T07:07:41.015Z,19.23
2023-05-18T07:10:12.872Z,19.25
2023-05-18T07:12:43.534Z,19.25
2023-05-18T07:15:14.780Z,19.25
2023-05-18T07:17:46.741Z,19.25
2023-05-18T07:20:17.680Z,19.25
2023-05-18T07:22:48.741Z,19.24
2023-05-18T07:25:19.761Z,19.24
2023-05-18T07:27:52.204Z,19.23
2023-05-18T07:30:23.581Z,19.22
2023-05-18T07:32:54.338Z,19.22
2023-05-18T07:35:26.623Z,19.22
2023-05-18T07:37:57.565Z,19.22
2023-05-18T07:40:28.638Z,19.21
2023-05-18T07:42:59.590Z,19.21
2023-05-18T07:45:31.035Z,19.21
2023-05-18T07:48:02.202Z,19.21
2023-05-18T07:50:34.830Z,19.21
2023-05-18T07:53:05.607Z,19.20
2023-05-18T07:55:36.379Z,19.21
2023-05-18T07:58:07.213Z,19.21
2023-05-18T08:00:38.594Z,19.21
2023-05-18T08:03:09.779Z,19.20
2023-05-18T08:05:40.903Z,19.19
2023-05-18T08:08:15.532Z,19.18
2023-05-18T08:10:46.550Z,19.17
2023-05-18T08:13:18.018Z,19.15
2023-05-18T08:15:56.074Z,19.16
2023-05-18T08:18:34.674Z,19.16
2023-05-18T08:21:08.304Z,19.16
2023-05-18T08:23:40.005Z,19.17
2023-05-18T08:26:14.004Z,19.17
2023-05-18T08:28:45.562Z,19.17
2023-05-18T08:31:17.164Z,19.15
2023-05-18T08:33:48.296Z,19.17
2023-05-18T08:36:19.823Z,19.16
2023-05-18T08:38:53.642Z,19.17
2023-05-18T08:41:28.862Z,19.18
2023-05-18T08:44:05.025Z,19.17
2023-05-18T08:46:41.294Z,19.18
2023-05-18T08:49:13.512Z,19.18
2023-05-18T08:51:47.098Z,19.19
2023-05-18T08:54:23.447Z,19.18
2023-05-18T08:56:55.948Z,19.18
2023-05-18T08:59:31.096Z,19.18
2023-05-18T09:02:02.181Z,19.19
2023-05-18T09:04:35.741Z,19.20
2023-05-18T09:07:08.462Z,19.21
2023-05-18T09:09:40.601Z,19.21
2023-05-18T09:12:12.935Z,19.21
2023-05-18T09:14:44.209Z,19.20
2023-05-18T09:17:15.061Z,19.20
2023-05-18T09:19:46.406Z,19.19
2023-05-18T09:22:17.240Z,19.19
2023-05-18T09:24:48.377Z,19.19
2023-05-18T09:27:19.298Z,19.19
2023-05-18T09:29:57.858Z,19.18
2023-05-18T09:32:29.819Z,19.17
2023-05-18T09:35:07.132Z,19.18
2023-05-18T09:37:42.182Z,19.18
2023-05-18T09:40:14.313Z,19.19
2023-05-18T09:42:46.365Z,19.19
2023-05-18T09:45:23.959Z,19.19
2023-05-18T09:47:56.352Z,19.18
2023-05-18T09:50:27.836Z,19.18
2023-05-18T09:52:59.328Z,19.18
2023-05-18T09:55:30.568Z,19.18
2023-05-18T09:58:03.445Z,19.16
2023-05-18T10:00:38.480Z,19.16
2023-05-18T10:03:19.931Z,19.15
2023-05-18T10:05:51.354Z,19.15
2023-05-18T10:08:22.294Z,19.15
2023-05-18T10:10:54.591Z,19.14
2023-05-18T10:13:29.494Z,19.14
2023-05-18T10:16:01.730Z,19.12
2023-05-18T10:18:33.997Z,19.12
2023-05-18T10:21:07.232Z,19.13
2023-05-18T10:23:38.759Z,19.13
2023-05-18T10:26:10.427Z,19.12
2023-05-18T10:28:47.570Z,19.11
2023-05-18T10:31:21.885Z,19.13
2023-05-18T10:33:53.512Z,19.14
2023-05-18T10:36:28.999Z,19.13
2023-05-18T10:39:01.342Z,19.13
2023-05-18T10:41:34.865Z,19.12
2023-05-18T10:44:06.222Z,19.10
2023-05-18T10:46:38.424Z,19.10
2023-05-18T10:49:15.028Z,19.09
2023-05-18T10:51:49.276Z,19.08
2023-05-18T10:54:20.952Z,19.08
2023-05-18T10:56:54.791Z,19.09
2023-05-18T10:59:25.846Z,19.08
2023-05-18T11:01:58.888Z,19.07
2023-05-18T11:04:31.033Z,19.08
2023-05-18T11:07:03.446Z,19.07
2023-05-18T11:09:34.710Z,19.08
2023-05-18T11:12:12.617Z,19.08
2023-05-18T11:14:52.288Z,19.08
2023-05-18T11:17:25.355Z,19.07
2023-05-18T11:20:14.586Z,19.07
2023-05-18T11:22:51.525Z,19.06
2023-05-18T11:25:48.781Z,19.06
2023-05-18T11:28:23.418Z,19.06
2023-05-18T11:30:54.629Z,19.06
2023-05-18T11:33:28.502Z,19.06
2023-05-18T11:36:02.337Z,19.06
2023-05-18T11:38:54.806Z,19.04
2023-05-18T11:41:34.321Z,19.04
2023-05-18T11:44:16.218Z,19.02
2023-05-18T11:47:00.815Z,19.03
2023-05-18T11:49:33.183Z,19.02
2023-05-18T11:52:09.983Z,19.01
2023-05-18T11:54:47.112Z,19.01
2023-05-18T11:57:19.020Z,19.01
2023-05-18T11:59:56.178Z,19.03
2023-05-18T12:02:28.855Z,19.04
2023-05-18T12:05:01.170Z,19.04
2023-05-18T12:07:34.473Z,19.04
2023-05-18T12:10:08.433Z,19.04
2023-05-18T12:12:40.941Z,19.05
2023-05-18T12:15:16.851Z,19.05
2023-05-18T12:17:49.468Z,19.05
2023-05-18T12:20:22.525Z,19.04
2023-05-18T12:22:55.359Z,19.05
2023-05-18T12:25:28.588Z,19.06
2023-05-18T12:28:00.475Z,19.05
2023-05-18T12:30:36.309Z,19.05
2023-05-18T12:33:07.896Z,19.04
2023-05-18T12:35:38.929Z,19.05
2023-05-18T12:38:09.837Z,19.06
2023-05-18T12:40:48.989Z,19.05
2023-05-18T12:43:20.557Z,19.05
2023-05-18T12:45:51.501Z,19.03
2023-05-18T12:48:26.636Z,19.04
2023-05-18T12:50:57.626Z,19.03
2023-05-18T12:53:28.629Z,19.03
2023-05-18T12:56:06.576Z,19.01
2023-05-18T12:58:37.504Z,19.02
2023-05-18T13:01:12.469Z,19.02
2023-05-18T13:03:44.191Z,19.02
2023-05-18T13:06:14.986Z,19.03
2023-05-18T13:08:46.186Z,19.03
2023-05-18T13:11:17.285Z,19.03
2023-05-18T13:14:08.504Z,19.04
2023-05-18T13:16:42.914Z,19.02
2023-05-18T13:19:18.023Z,19.04
2023-05-18T13:21:56.932Z,19.03
2023-05-18T13:24:27.802Z,19.03
2023-05-18T13:26:58.777Z,19.03
2023-05-18T13:29:29.933Z,19.03
2023-05-18T13:32:00.945Z,19.04
2023-05-18T13:34:31.931Z,19.04
2023-05-18T13:37:03.063Z,19.04
2023-05-18T13:39:34.113Z,19.03
2023-05-18T13:42:05.251Z,19.03
2023-05-18T13:44:36.510Z,19.03
2023-05-18T13:47:08.267Z,19.02
2023-05-18T13:49:39.191Z,19.01
2023-05-18T13:52:10.358Z,19.01
2023-05-18T13:54:41.532Z,19.02
2023-05-18T13:57:12.628Z,19.03
2023-05-18T13:59:43.829Z,19.06
2023-05-18T14:02:14.867Z,19.07
2023-05-18T14:04:46.151Z,19.09
2023-05-18T14:07:17.214Z,19.11
2023-05-18T14:09:48.605Z,19.11
2023-05-18T14:12:19.841Z,19.11
2023-05-18T14:14:50.807Z,19.10
2023-05-18T14:17:22.096Z,19.09
2023-05-18T14:19:53.231Z,19.10
2023-05-18T14:22:26.141Z,19.09
2023-05-18T14:24:57.367Z,19.06
2023-05-18T14:27:28.385Z,19.08
2023-05-18T14:29:59.673Z,19.08
2023-05-18T14:32:30.787Z,19.08
2023-05-18T14:35:01.907Z,19.08
2023-05-18T14:37:34.094Z,19.08
2023-05-18T14:40:05.964Z,19.09
2023-05-18T14:42:37.697Z,19.09
2023-05-18T14:45:10.922Z,19.09
2023-05-18T14:47:42.171Z,19.08
2023-05-18T14:50:13.737Z,19.09
2023-05-18T14:52:44.601Z,19.09
2023-05-18T14:55:15.542Z,19.09
2023-05-18T14:57:46.863Z,19.08
2023-05-18T15:00:19.178Z,19.09
2023-05-18T15:02:50.570Z,19.08
2023-05-18T15:05:21.587Z,19.06
2023-05-18T15:07:52.564Z,19.05
2023-05-18T15:10:23.703Z,19.07
2023-05-18T15:12:54.926Z,19.06
2023-05-18T15:15:26.770Z,19.05
2023-05-18T15:17:57.833Z,19.04
2023-05-18T15:20:29.516Z,19.04
2023-05-18T15:23:01.484Z,19.03
2023-05-18T15:25:32.787Z,19.04
2023-05-18T15:28:03.965Z,19.03
2023-05-18T15:30:35.351Z,19.02
2023-05-18T15:33:07.265Z,19.02
2023-05-18T15:35:39.541Z,19.03
2023-05-18T15:38:10.524Z,19.05
2023-05-18T15:40:43.718Z,19.05
2023-05-18T15:43:14.550Z,19.05
2023-05-18T15:45:45.457Z,19.05
2023-05-18T15:48:16.404Z,19.07
2023-05-18T15:50:47.720Z,19.07
2023-05-18T15:53:18.716Z,19.07
2023-05-18T15:55:50.959Z,19.07
2023-05-18T15:58:22.499Z,19.08
2023-05-18T16:00:53.602Z,19.08
2023-05-18T16:03:24.989Z,19.08
2023-05-18T16:05:56.186Z,19.08
2023-05-18T16:08:27.254Z,19.09
2023-05-18T16:10:58.125Z,19.09
2023-05-18T16:13:29.356Z,19.09
2023-05-18T16:16:00.727Z,19.09
2023-05-18T16:18:31.859Z,19.10
2023-05-18T16:21:02.909Z,19.12
2023-05-18T16:23:34.112Z,19.13
2023-05-18T16:26:05.889Z,19.17
2023-05-18T16:28:36.951Z,19.21
2023-05-18T16:31:11.061Z,19.24
2023-05-18T16:33:42.801Z,19.26
2023-05-18T16:36:14.299Z,19.28
2023-05-18T16:38:45.528Z,19.31
2023-05-18T16:41:17.086Z,19.33
2023-05-18T16:43:48.251Z,19.35
2023-05-18T16:46:20.114Z,19.36
2023-05-18T16:48:51.220Z,19.37
2023-05-18T16:51:22.190Z,19.38
2023-05-18T16:53:53.580Z,19.39
2023-05-18T16:56:25.559Z,19.39
2023-05-18T16:58:56.854Z,19.40
2023-05-18T17:01:29.012Z,19.41
2023-05-18T17:04:00.427Z,19.43
2023-05-18T17:06:31.529Z,19.45
2023-05-18T17:09:06.142Z,19.45
2023-05-18T17:11:37.515Z,19.46
2023-05-18T17:14:08.662Z,19.47
2023-05-18T17:16:41.065Z,19.48
2023-05-18T17:19:13.790Z,19.50
2023-05-18T17:21:47.932Z,19.50
2023-05-18T17:24:19.142Z,19.51
2023-05-18T17:26:50.461Z,19.53
2023-05-18T17:29:21.979Z,19.55
2023-05-18T17:31:53.263Z,19.57
2023-05-18T17:34:26.729Z,19.58
2023-05-18T17:36:58.849Z,19.59
2023-05-18T17:39:29.863Z,19.60
2023-05-18T17:42:01.928Z,19.61
2023-05-18T17:44:33.166Z,19.62
2023-05-18T17:47:04.752Z,19.63
2023-05-18T17:49:36.182Z,19.64
2023-05-18T17:52:08.356Z,19.65
2023-05-18T17:54:39.376Z,19.67
2023-05-18T17:57:11.753Z,19.68
2023-05-18T17:59:43.023Z,19.68
2023-05-18T18:02:14.576Z,19.70
2023-05-18T18:04:46.353Z,19.69
2023-05-18T18:07:17.514Z,19.70
2023-05-18T18:09:48.604Z,19.70
2023-05-18T18:12:19.936Z,19.71
2023-05-18T18:14:50.828Z,19.71
2023-05-18T18:17:23.210Z,19.71
2023-05-18T18:19:54.692Z,19.72
2023-05-18T18:22:25.882Z,19.73
2023-05-18T18:24:57.030Z,19.74
2023-05-18T18:27:28.594Z,19.75
2023-05-18T18:30:00.047Z,19.75
2023-05-18T18:32:31.249Z,19.76
2023-05-18T18:35:02.469Z,19.77
2023-05-18T18:37:34.129Z,19.77
2023-05-18T18:40:08.006Z,19.80
2023-05-18T18:42:37.458Z,19.81
2023-05-18T18:45:10.168Z,19.80
2023-05-18T18:47:41.401Z,19.82
2023-05-18T18:50:13.686Z,19.82
2023-05-18T18:52:44.801Z,19.82
2023-05-18T18:55:18.452Z,19.83
2023-05-18T18:57:49.899Z,19.84
2023-05-18T19:00:22.628Z,19.84
2023-05-18T19:02:53.890Z,19.85
2023-05-18T19:05:25.272Z,19.86
2023-05-18T19:08:02.535Z,19.88
2023-05-18T19:10:34.472Z,19.89
2023-05-18T19:13:06.273Z,19.90
2023-05-18T19:15:38.438Z,19.90
2023-05-18T19:18:09.719Z,19.91
2023-05-18T19:20:40.949Z,19.92
2023-05-18T19:23:12.285Z,19.92
2023-05-18T19:25:43.331Z,19.92
2023-05-18T19:28:14.579Z,19.93
2023-05-18T19:30:46.032Z,19.93
2023-05-18T19:33:17.297Z,19.94
2023-05-18T19:35:49.637Z,19.98
2023-05-18T19:38:21.020Z,20.02
2023-05-18T19:40:52.087Z,20.03
2023-05-18T19:43:23.208Z,20.03
2023-05-18T19:45:54.387Z,20.04
2023-05-18T19:48:25.599Z,20.04
2023-05-18T19:50:57.151Z,20.03
2023-05-18T19:53:28.307Z,20.03
2023-05-18T19:56:00.303Z,20.04
2023-05-18T19:58:31.274Z,20.04
2023-05-18T20:01:03.025Z,20.06
2023-05-18T20:03:34.578Z,20.06
2023-05-18T20:06:06.144Z,20.07
2023-05-18T20:08:37.955Z,20.08
2023-05-18T20:11:08.992Z,20.08
2023-05-18T20:13:43.209Z,20.08
2023-05-18T20:16:14.927Z,20.08
2023-05-18T20:18:46.752Z,20.08
2023-05-18T20:21:18.658Z,20.08
2023-05-18T20:23:49.747Z,20.09
2023-05-18T20:26:22.736Z,20.10
2023-05-18T20:28:54.187Z,20.10
2023-05-18T20:31:25.093Z,20.10
2023-05-18T20:33:57.904Z,20.11
2023-05-18T20:36:30.550Z,20.11
2023-05-18T20:39:01.427Z,20.10
2023-05-18T20:41:32.383Z,20.08
2023-05-18T20:44:03.430Z,20.05
2023-05-18T20:46:34.344Z,20.03
2023-05-18T20:49:05.676Z,20.03
2023-05-18T20:51:36.668Z,20.03
2023-05-18T20:54:08.022Z,20.03
2023-05-18T20:56:40.008Z,20.03
2023-05-18T20:59:12.806Z,20.02
2023-05-18T21:01:44.068Z,20.01
2023-05-18T21:04:17.144Z,20.01
2023-05-18T21:06:49.695Z,20.02
2023-05-18T21:09:20.834Z,20.01
2023-05-18T21:11:52.119Z,20.00
2023-05-18T21:14:23.029Z,19.98
2023-05-18T21:16:54.106Z,19.96
2023-05-18T21:19:25.516Z,19.95
2023-05-18T21:21:56.575Z,19.94
2023-05-18T21:24:27.524Z,19.92
2023-05-18T21:26:58.364Z,19.90
2023-05-18T21:29:29.406Z,19.89
2023-05-18T21:32:00.684Z,19.88
2023-05-18T21:34:31.608Z,19.86
2023-05-18T21:37:03.238Z,19.85
2023-05-18T21:39:34.240Z,19.83
2023-05-18T21:42:05.501Z,19.82
2023-05-18T21:44:36.558Z,19.80
2023-05-18T21:47:07.766Z,19.78
2023-05-18T21:49:38.795Z,19.77
2023-05-18T21:52:10.254Z,19.76
2023-05-18T21:54:41.098Z,19.75
2023-05-18T21:57:12.216Z,19.73
2023-05-18T21:59:43.151Z,19.72
2023-05-18T22:02:13.984Z,19.71
2023-05-18T22:04:44.970Z,19.69
2023-05-18T22:07:16.054Z,19.68
2023-05-18T22:09:47.012Z,19.67
2023-05-18T22:12:17.897Z,19.67
2023-05-18T22:14:48.765Z,19.66
2023-05-18T22:17:19.721Z,19.65
2023-05-18T22:19:51.038Z,19.63
2023-05-18T22:22:30.187Z,19.62
2023-05-18T22:25:01.722Z,19.60
2023-05-18T22:27:33.998Z,19.59
2023-05-18T22:30:06.190Z,19.58
2023-05-18T22:32:37.031Z,19.58
2023-05-18T22:35:10.089Z,19.58
2023-05-18T22:37:40.956Z,19.57
2023-05-18T22:40:13.739Z,19.57
2023-05-18T22:42:44.445Z,19.55
2023-05-18T22:45:16.093Z,19.55
2023-05-18T22:47:48.360Z,19.55
2023-05-18T22:50:19.291Z,19.55
2023-05-18T22:52:50.509Z,19.54
2023-05-18T22:55:21.286Z,19.53
2023-05-18T22:57:52.005Z,19.52
2023-05-18T23:00:23.275Z,19.52
2023-05-18T23:02:54.098Z,19.52
2023-05-18T23:05:24.922Z,19.53
2023-05-18T23:07:58.239Z,19.52
2023-05-18T23:10:29.321Z,19.52
2023-05-18T23:13:00.507Z,19.51
2023-05-18T23:15:31.881Z,19.50
2023-05-18T23:18:02.954Z,19.50
2023-05-18T23:20:34.659Z,19.49
2023-05-18T23:23:05.752Z,19.48
2023-05-18T23:25:36.654Z,19.47
2023-05-18T23:28:07.852Z,19.46
2023-05-18T23:30:38.609Z,19.45
2023-05-18T23:33:11.548Z,19.42
2023-05-18T23:35:44.105Z,19.43
2023-05-18T23:38:22.003Z,19.42
2023-05-18T23:40:55.529Z,19.42
2023-05-18T23:43:27.880Z,19.42
2023-05-18T23:45:59.989Z,19.42
2023-05-18T23:48:32.398Z,19.42
2023-05-18T23:51:04.849Z,19.43
2023-05-18T23:53:36.392Z,19.42
2023-05-18T23:56:08.930Z,19.42
2023-05-18T23:58:41.524Z,19.42
